Time;durP1;ratioP1;P1;durP2;ratioP2;P2;SDS_P1;SDS_P2;PMS_P1;PMS_P2;Temp;Humidity;BMP_temperature;BMP_pressure;BME280_temperature;BME280_humidity;BME280_pressure;Samples;Min_cycle;Max_cycle;Signal;HPM_P1;HPM_P2
2022/11/22 00:01:50;;;;;;;21.15;9.95;;;4.70;99.90;;;;;;5075645;28;20047;-82
2022/11/22 00:04:15;;;;;;;17.83;9.90;;;4.70;99.90;;;;;;5091943;28;20505;-82
2022/11/22 00:06:41;;;;;;;18.13;9.27;;;4.70;99.90;;;;;;5074219;28;20079;-82
2022/11/22 00:09:06;;;;;;;19.38;9.43;;;4.70;99.90;;;;;;5092100;28;20040;-82
2022/11/22 00:11:32;;;;;;;18.70;9.35;;;4.70;99.90;;;;;;5092048;28;20096;-82
2022/11/22 00:13:57;;;;;;;22.42;9.45;;;4.70;99.90;;;;;;5091752;28;20039;-82
2022/11/22 00:16:23;;;;;;;17.48;9.30;;;4.70;99.90;;;;;;5075010;28;20123;-82
2022/11/22 00:18:49;;;;;;;16.83;9.50;;;4.70;99.90;;;;;;5091963;28;20082;-82
2022/11/22 00:21:14;;;;;;;18.35;9.55;;;4.70;99.90;;;;;;5091920;28;20047;-82
2022/11/22 00:23:40;;;;;;;17.25;9.02;;;4.70;99.90;;;;;;5091873;28;20055;-82
2022/11/22 00:26:10;;;;;;;17.65;9.80;;;4.70;99.90;;;;;;5091658;28;20566;-82
2022/11/22 00:28:37;;;;;;;18.67;8.80;;;4.70;99.90;;;;;;5092122;28;20481;-82
2022/11/22 00:31:03;;;;;;;17.17;9.10;;;4.70;99.90;;;;;;5074703;28;20032;-82
2022/11/22 00:33:28;;;;;;;19.25;8.65;;;4.70;99.90;;;;;;5074462;28;20108;-82
2022/11/22 00:35:54;;;;;;;17.35;8.63;;;4.70;99.90;;;;;;5074791;28;20036;-82
2022/11/22 00:38:19;;;;;;;15.48;8.50;;;4.70;99.90;;;;;;5091502;28;20043;-82
2022/11/22 00:40:45;;;;;;;21.63;9.57;;;4.80;99.90;;;;;;5074772;28;20043;-82
2022/11/22 00:43:10;;;;;;;21.50;9.73;;;4.70;99.90;;;;;;5091425;28;20035;-82
2022/11/22 00:45:36;;;;;;;16.08;8.43;;;4.80;99.90;;;;;;5091443;28;20077;-82
2022/11/22 00:48:01;;;;;;;17.58;9.75;;;4.80;99.90;;;;;;5074529;28;20044;-82
2022/11/22 00:50:27;;;;;;;18.95;8.80;;;4.80;99.90;;;;;;5091411;28;20061;-82
2022/11/22 00:52:52;;;;;;;16.73;8.93;;;4.80;99.90;;;;;;5090823;28;20085;-82
2022/11/22 00:55:18;;;;;;;16.40;7.63;;;4.80;99.90;;;;;;5091257;28;20044;-82
2022/11/22 00:57:43;;;;;;;21.17;10.07;;;4.80;99.90;;;;;;5091035;28;20113;-82
2022/11/22 01:00:09;;;;;;;18.15;9.13;;;4.80;99.90;;;;;;5090917;28;20040;-82
2022/11/22 01:02:35;;;;;;;18.65;8.57;;;4.80;99.90;;;;;;5091087;28;20578;-82
2022/11/22 01:05:00;;;;;;;16.58;8.50;;;4.80;99.90;;;;;;5091324;28;20043;-82
2022/11/22 01:07:26;;;;;;;19.25;9.38;;;4.80;99.90;;;;;;5073979;28;20048;-82
2022/11/22 01:09:52;;;;;;;19.65;9.65;;;4.80;99.90;;;;;;5091095;28;20047;-82
2022/11/22 01:12:17;;;;;;;19.52;10.25;;;4.80;99.90;;;;;;5073811;28;20036;-82
2022/11/22 01:14:43;;;;;;;17.23;8.98;;;4.80;99.90;;;;;;5074041;28;20054;-82
2022/11/22 01:17:08;;;;;;;18.27;9.75;;;4.80;99.90;;;;;;5090611;28;20417;-82
2022/11/22 01:19:34;;;;;;;19.35;9.75;;;4.80;99.90;;;;;;5090941;28;20032;-82
2022/11/22 01:21:59;;;;;;;18.90;9.60;;;4.80;99.90;;;;;;5090637;28;20048;-82
2022/11/22 01:24:26;;;;;;;16.88;9.32;;;4.80;99.90;;;;;;5090662;28;20086;-82
2022/11/22 01:26:52;;;;;;;19.08;9.88;;;4.80;99.90;;;;;;5090610;28;20047;-82
2022/11/22 01:29:17;;;;;;;18.60;10.50;;;4.90;99.90;;;;;;5073917;28;20036;-82
2022/11/22 01:31:43;;;;;;;20.58;10.82;;;4.80;99.90;;;;;;5090689;28;20125;-82
2022/11/22 01:34:08;;;;;;;18.40;9.55;;;4.90;99.90;;;;;;5090447;28;20739;-82
2022/11/22 01:36:34;;;;;;;17.92;8.90;;;4.90;99.90;;;;;;5090792;28;20161;-82
2022/11/22 01:38:59;;;;;;;20.40;10.73;;;4.90;99.90;;;;;;5073974;28;20047;-82
2022/11/22 01:41:25;;;;;;;17.27;9.30;;;4.90;99.90;;;;;;5090627;28;20036;-83
2022/11/22 01:43:50;;;;;;;20.50;9.15;;;4.90;99.90;;;;;;5073488;28;20044;-82
2022/11/22 01:46:48;;;;;;;19.00;9.40;;;4.90;99.90;;;;;;5090235;28;20042;-82
2022/11/22 01:49:30;;;;;;;19.42;9.40;;;4.90;99.90;;;;;;4993043;28;20060;-82
2022/11/22 01:52:01;;;;;;;17.05;9.45;;;4.90;99.90;;;;;;4977249;28;20042;-82
2022/11/22 01:54:32;;;;;;;17.98;9.55;;;4.90;99.90;;;;;;4992999;28;20042;-82
2022/11/22 01:57:07;;;;;;;17.35;8.82;;;4.90;99.90;;;;;;4976784;28;20170;-82
2022/11/22 01:59:37;;;;;;;15.82;8.25;;;4.90;99.90;;;;;;4976856;28;20058;-82
2022/11/22 02:02:04;;;;;;;18.30;8.73;;;5.00;99.90;;;;;;4992742;28;20139;-82
2022/11/22 02:04:32;;;;;;;19.30;8.68;;;5.00;99.90;;;;;;4993155;28;20561;-83
2022/11/22 02:07:21;;;;;;;20.85;9.77;;;5.00;99.90;;;;;;4976689;28;20060;-82
2022/11/22 02:09:49;;;;;;;20.90;9.70;;;5.00;99.90;;;;;;4976779;28;20048;-82
2022/11/22 02:12:17;;;;;;;18.52;9.07;;;5.00;99.90;;;;;;4976447;28;20057;-82
2022/11/22 02:14:44;;;;;;;19.38;9.65;;;5.00;99.90;;;;;;4976754;28;20034;-83
2022/11/22 02:17:10;;;;;;;16.75;8.32;;;5.00;99.90;;;;;;4993000;28;20046;-83
2022/11/22 02:19:46;;;;;;;18.15;8.85;;;5.00;99.90;;;;;;4992854;28;20412;-82
2022/11/22 02:22:37;;;;;;;17.10;8.52;;;5.00;99.90;;;;;;4992604;28;20559;-82
2022/11/22 02:25:28;;;;;;;23.77;10.02;;;5.10;99.90;;;;;;5020241;28;20048;-88
2022/11/22 02:27:54;;;;;;;19.27;9.50;;;5.10;99.90;;;;;;5090203;28;20123;-88
2022/11/22 02:30:20;;;;;;;18.85;9.18;;;5.10;99.90;;;;;;5093196;28;20061;-88
2022/11/22 02:32:46;;;;;;;21.15;9.50;;;5.10;99.90;;;;;;5093728;28;20123;-88
2022/11/22 02:35:24;;;;;;;17.45;8.40;;;5.10;99.90;;;;;;5093891;28;20385;-88
2022/11/22 02:37:54;;;;;;;18.23;9.63;;;5.10;99.90;;;;;;5077197;28;20097;-88
2022/11/22 02:40:20;;;;;;;18.42;9.25;;;5.10;99.90;;;;;;5093924;28;20115;-88
2022/11/22 02:43:00;;;;;;;17.35;9.32;;;5.10;99.90;;;;;;5093599;28;20512;-88
2022/11/22 02:45:26;;;;;;;18.35;9.02;;;5.10;99.90;;;;;;5093852;28;20405;-89
2022/11/22 02:47:52;;;;;;;17.52;9.40;;;5.10;99.90;;;;;;5076838;28;20497;-88
2022/11/22 02:50:17;;;;;;;19.73;9.43;;;5.10;99.90;;;;;;5093743;28;20039;-88
2022/11/22 02:52:43;;;;;;;17.25;9.85;;;5.10;99.90;;;;;;5093216;28;20048;-88
2022/11/22 02:55:08;;;;;;;18.05;8.60;;;5.20;99.90;;;;;;5093617;28;20451;-89
2022/11/22 02:57:34;;;;;;;15.55;8.68;;;5.10;99.90;;;;;;5076580;28;20444;-89
2022/11/22 03:00:00;;;;;;;18.30;9.13;;;5.10;99.90;;;;;;5076875;28;20050;-89
2022/11/22 03:02:25;;;;;;;16.27;8.77;;;5.20;99.90;;;;;;5092882;28;20040;-89
2022/11/22 03:04:51;;;;;;;19.15;9.50;;;5.20;99.90;;;;;;5076546;28;20089;-88
2022/11/22 03:07:17;;;;;;;16.50;9.00;;;5.20;99.90;;;;;;5093386;28;20047;-88
2022/11/22 03:09:42;;;;;;;15.52;7.78;;;5.20;99.90;;;;;;5076446;28;20040;-88
2022/11/22 03:12:08;;;;;;;17.45;8.82;;;5.20;99.90;;;;;;5093241;28;20105;-88
2022/11/22 03:14:33;;;;;;;15.25;7.38;;;5.20;99.90;;;;;;5092986;28;20036;-88
2022/11/22 03:16:59;;;;;;;18.30;8.65;;;5.30;99.90;;;;;;5093153;28;20040;-88
2022/11/22 03:19:24;;;;;;;19.15;8.40;;;5.30;99.90;;;;;;5093363;28;20036;-88
2022/11/22 03:21:50;;;;;;;15.27;6.97;;;5.30;99.90;;;;;;5093135;28;20619;-88
2022/11/22 03:24:16;;;;;;;17.05;8.98;;;5.30;99.90;;;;;;5075901;28;20051;-88
2022/11/22 03:26:48;;;;;;;15.93;7.22;;;5.30;99.90;;;;;;5093019;28;20032;-88
2022/11/22 03:29:15;;;;;;;18.48;8.07;;;5.30;99.90;;;;;;5093017;28;20040;-88
2022/11/22 03:31:41;;;;;;;15.80;7.22;;;5.30;99.90;;;;;;5076338;28;20401;-89
2022/11/22 03:34:07;;;;;;;18.38;8.68;;;5.30;99.90;;;;;;5076069;28;20036;-89
2022/11/22 03:36:33;;;;;;;16.52;8.20;;;5.40;99.90;;;;;;5075846;28;20039;-89
2022/11/22 03:38:58;;;;;;;15.50;7.88;;;5.40;99.90;;;;;;5093065;28;20032;-89
2022/11/22 03:41:24;;;;;;;20.35;7.95;;;5.40;99.90;;;;;;5092460;28;20036;-86
2022/11/22 03:43:49;;;;;;;15.90;7.72;;;5.40;99.90;;;;;;5092296;28;20040;-86
2022/11/22 03:46:18;;;;;;;17.95;8.45;;;5.40;99.90;;;;;;5075680;28;20071;-86
2022/11/22 03:48:44;;;;;;;16.20;7.50;;;5.40;99.90;;;;;;5092870;28;20101;-86
2022/11/22 03:51:09;;;;;;;18.98;8.18;;;5.40;99.90;;;;;;5092467;28;20485;-86
2022/11/22 03:53:35;;;;;;;16.52;8.07;;;5.40;99.90;;;;;;5075353;28;20404;-86
2022/11/22 03:56:01;;;;;;;16.67;8.10;;;5.40;99.90;;;;;;5092540;28;20028;-86
2022/11/22 03:58:26;;;;;;;15.20;7.63;;;5.50;99.90;;;;;;5092532;28;20050;-86
2022/11/22 04:00:52;;;;;;;14.65;7.47;;;5.50;99.90;;;;;;5075447;28;20036;-86
2022/11/22 04:03:17;;;;;;;15.07;7.68;;;5.50;99.90;;;;;;5091990;28;20036;-86
2022/11/22 04:05:44;;;;;;;13.77;7.40;;;5.50;99.90;;;;;;5092248;28;20032;-86
2022/11/22 04:08:10;;;;;;;13.65;7.22;;;5.50;99.90;;;;;;5092170;28;20047;-86
2022/11/22 04:10:35;;;;;;;14.20;7.70;;;5.50;99.90;;;;;;5092230;28;20036;-85
2022/11/22 04:13:01;;;;;;;14.52;7.53;;;5.50;99.90;;;;;;5092085;28;20058;-86
2022/11/22 04:15:27;;;;;;;14.35;7.00;;;5.50;99.90;;;;;;5091979;28;20043;-86
2022/11/22 04:17:52;;;;;;;15.02;7.18;;;5.60;99.90;;;;;;5092313;28;20405;-86
2022/11/22 04:23:17;;;;;;;15.02;6.43;;;5.60;99.90;;;;;;5091501;28;20048;-86
2022/11/22 04:25:48;;;;;;;13.75;6.90;;;5.60;99.90;;;;;;5091785;28;20119;-86
2022/11/22 04:28:15;;;;;;;16.67;7.22;;;5.60;99.90;;;;;;5074889;28;20047;-86
2022/11/22 04:33:25;;;;;;;15.13;7.47;;;5.70;99.90;;;;;;5091390;28;20036;-86
2022/11/22 04:35:51;;;;;;;14.95;7.18;;;5.70;99.90;;;;;;5091903;28;20036;-86
2022/11/22 04:38:18;;;;;;;14.30;8.18;;;5.70;99.90;;;;;;5091628;28;20516;-86
2022/11/22 04:40:44;;;;;;;14.55;7.43;;;5.70;99.90;;;;;;5091834;28;20048;-86
2022/11/22 04:46:09;;;;;;;16.08;7.35;;;5.80;99.90;;;;;;5091203;28;20110;-86
2022/11/22 04:48:35;;;;;;;15.90;7.22;;;5.80;99.90;;;;;;5091432;28;20044;-86
2022/11/22 04:53:44;;;;;;;13.00;6.72;;;5.80;99.90;;;;;;5090766;28;20040;-86
2022/11/22 04:56:11;;;;;;;15.82;7.47;;;5.80;99.90;;;;;;5074317;28;20394;-87
2022/11/22 04:58:36;;;;;;;13.20;6.57;;;5.80;99.90;;;;;;5091099;28;20040;-86
2022/11/22 05:01:02;;;;;;;15.52;7.00;;;5.80;99.90;;;;;;5091079;28;20043;-86
2022/11/22 05:03:28;;;;;;;16.00;8.07;;;5.80;99.90;;;;;;5073958;28;20036;-86
2022/11/22 05:05:53;;;;;;;16.58;7.47;;;5.90;99.90;;;;;;5091018;28;20105;-86
2022/11/22 05:08:19;;;;;;;12.20;6.63;;;5.90;99.90;;;;;;5091040;28;20043;-86
2022/11/22 05:10:56;;;;;;;14.05;7.57;;;5.90;99.90;;;;;;5074093;28;20043;-86
2022/11/22 05:13:36;;;;;;;15.80;7.72;;;5.90;99.90;;;;;;5091018;28;20409;-86
2022/11/22 05:16:05;;;;;;;13.65;6.78;;;5.90;99.90;;;;;;5090841;28;20067;-86
2022/11/22 05:18:30;;;;;;;16.00;7.18;;;5.90;99.90;;;;;;5091178;28;20040;-86
2022/11/22 05:20:56;;;;;;;16.63;7.07;;;6.00;99.90;;;;;;5073955;28;20033;-86
2022/11/22 05:26:08;;;;;;;15.57;7.65;;;6.00;99.90;;;;;;5090583;28;20505;-86
2022/11/22 05:28:36;;;;;;;13.15;7.65;;;6.00;99.90;;;;;;5074163;28;20482;-85
2022/11/22 05:31:10;;;;;;;15.40;7.25;;;6.00;99.90;;;;;;5073806;28;20081;-86
2022/11/22 05:33:38;;;;;;;14.27;7.25;;;6.00;99.90;;;;;;5073569;28;20062;-86
2022/11/22 05:36:04;;;;;;;15.38;7.82;;;6.10;99.90;;;;;;5090599;28;20119;-86
2022/11/22 05:38:30;;;;;;;18.40;7.93;;;6.10;99.90;;;;;;5090781;28;20485;-86
2022/11/22 05:40:56;;;;;;;16.83;7.75;;;6.10;99.90;;;;;;5090612;28;20119;-86
2022/11/22 05:43:21;;;;;;;14.80;8.65;;;6.10;99.90;;;;;;5090593;28;20047;-86
2022/11/22 05:45:47;;;;;;;14.38;7.35;;;6.10;99.90;;;;;;5090813;28;20043;-86
2022/11/22 05:48:12;;;;;;;16.20;7.90;;;6.10;99.90;;;;;;5073685;28;20044;-86
2022/11/22 05:50:38;;;;;;;15.30;7.55;;;6.10;99.90;;;;;;5090283;28;20101;-86
2022/11/22 05:53:03;;;;;;;14.30;7.20;;;6.20;99.90;;;;;;5073592;28;20036;-86
2022/11/22 05:55:29;;;;;;;13.45;7.10;;;6.20;99.90;;;;;;5073525;28;20036;-86
2022/11/22 05:57:58;;;;;;;17.40;7.28;;;6.20;99.90;;;;;;5090405;28;20409;-86
2022/11/22 06:00:24;;;;;;;15.82;7.38;;;6.20;99.90;;;;;;5090438;28;20093;-87
2022/11/22 06:02:49;;;;;;;15.07;7.38;;;6.20;99.90;;;;;;5090179;28;20047;-86
2022/11/22 06:05:15;;;;;;;15.55;6.95;;;6.20;99.90;;;;;;5093406;28;20040;-86
2022/11/22 06:07:41;;;;;;;14.43;7.22;;;6.20;99.90;;;;;;5094220;28;20044;-86
2022/11/22 06:10:07;;;;;;;11.52;6.05;;;6.20;99.90;;;;;;5077481;28;20032;-86
2022/11/22 06:12:32;;;;;;;17.42;7.82;;;6.20;99.90;;;;;;5094247;28;20058;-86
2022/11/22 06:14:58;;;;;;;15.55;7.85;;;6.20;99.90;;;;;;5094651;28;20517;-86
2022/11/22 06:17:23;;;;;;;15.45;8.00;;;6.30;99.90;;;;;;5094304;28;20440;-86
2022/11/22 06:19:49;;;;;;;14.15;7.80;;;6.20;99.90;;;;;;5094542;28;20047;-86
2022/11/22 06:22:14;;;;;;;13.52;7.07;;;6.30;99.90;;;;;;5094004;28;20044;-86
2022/11/22 06:24:41;;;;;;;16.33;6.93;;;6.30;99.90;;;;;;5094281;28;20036;-86
2022/11/22 06:27:07;;;;;;;14.30;6.35;;;6.30;99.90;;;;;;5094132;28;20562;-86
2022/11/22 06:29:32;;;;;;;13.52;6.43;;;6.30;99.90;;;;;;5077223;28;20044;-86
2022/11/22 06:31:58;;;;;;;16.13;5.95;;;6.30;99.90;;;;;;5093904;28;20157;-86
2022/11/22 06:34:24;;;;;;;13.25;5.57;;;6.30;99.90;;;;;;5093973;28;20468;-87
2022/11/22 06:36:50;;;;;;;15.10;6.05;;;6.30;99.90;;;;;;5093956;28;20553;-86
2022/11/22 06:39:15;;;;;;;13.48;5.57;;;6.40;99.90;;;;;;5076917;28;20079;-87
2022/11/22 06:41:41;;;;;;;14.90;5.55;;;6.40;99.90;;;;;;5093801;28;20055;-87
2022/11/22 06:44:08;;;;;;;15.35;6.07;;;6.40;99.90;;;;;;5093886;28;20072;-86
2022/11/22 06:46:34;;;;;;;21.08;6.15;;;6.40;99.90;;;;;;5076931;28;20082;-87
2022/11/22 06:49:01;;;;;;;15.18;5.93;;;6.40;99.90;;;;;;5076822;28;20036;-87
2022/11/22 06:51:29;;;;;;;13.52;6.22;;;6.40;99.90;;;;;;5093615;28;20505;-87
2022/11/22 06:53:55;;;;;;;17.42;6.00;;;6.40;99.90;;;;;;5093304;28;20406;-86
2022/11/22 06:56:24;;;;;;;14.27;5.15;;;6.40;99.90;;;;;;5076562;28;20475;-86
2022/11/22 06:58:50;;;;;;;19.02;6.40;;;6.40;99.90;;;;;;5076951;28;20044;-86
2022/11/22 07:01:27;;;;;;;15.55;5.22;;;6.40;99.90;;;;;;5093456;28;20044;-86
2022/11/22 07:03:56;;;;;;;15.23;5.00;;;6.30;99.90;;;;;;5075499;28;20047;-86
2022/11/22 07:06:24;;;;;;;18.45;5.43;;;6.30;99.90;;;;;;5110307;28;20123;-86
2022/11/22 07:08:50;;;;;;;15.98;4.90;;;6.40;99.90;;;;;;5093148;28;20066;-86
2022/11/22 07:11:21;;;;;;;13.10;4.80;;;6.30;99.90;;;;;;5093021;28;20473;-86
2022/11/22 07:13:48;;;;;;;14.00;5.38;;;6.30;99.90;;;;;;5076248;28;20136;-86
2022/11/22 07:16:17;;;;;;;14.45;5.05;;;6.30;99.90;;;;;;5092036;28;20032;-87
2022/11/22 07:18:43;;;;;;;14.52;5.05;;;6.30;99.90;;;;;;5076172;28;20032;-86
2022/11/22 07:21:11;;;;;;;13.25;4.45;;;6.30;99.90;;;;;;5090979;28;20072;-86
2022/11/22 07:23:38;;;;;;;11.57;5.03;;;6.40;99.90;;;;;;5092504;28;20455;-86
2022/11/22 07:26:04;;;;;;;15.00;4.15;;;6.40;99.90;;;;;;5075707;28;20047;-86
2022/11/22 07:28:30;;;;;;;15.98;5.18;;;6.40;99.90;;;;;;5092563;28;20032;-86
2022/11/22 07:31:00;;;;;;;15.77;3.92;;;6.40;99.90;;;;;;5092477;28;20444;-86
2022/11/22 07:33:26;;;;;;;12.60;3.83;;;6.40;99.90;;;;;;5092326;28;20044;-86
2022/11/22 07:35:51;;;;;;;12.35;3.25;;;6.30;99.90;;;;;;5075570;28;20032;-86
2022/11/22 07:38:17;;;;;;;11.30;3.50;;;6.40;99.90;;;;;;5092419;28;20084;-86
2022/11/22 07:40:43;;;;;;;15.50;3.28;;;6.30;99.90;;;;;;5092623;28;20501;-86
2022/11/22 07:43:08;;;;;;;12.35;3.53;;;6.30;99.90;;;;;;5074953;28;20047;-86
2022/11/22 07:45:34;;;;;;;14.82;3.28;;;6.30;99.90;;;;;;5075255;28;20040;-86
2022/11/22 07:48:00;;;;;;;14.95;3.53;;;6.20;99.90;;;;;;5075267;28;20044;-86
2022/11/22 07:50:26;;;;;;;15.35;3.60;;;6.20;99.90;;;;;;5075189;28;20068;-86
2022/11/22 07:52:56;;;;;;;11.82;2.40;;;6.20;99.90;;;;;;5091491;28;20089;-86
2022/11/22 07:55:24;;;;;;;10.23;2.45;;;6.20;99.90;;;;;;5091922;28;20146;-86
2022/11/22 07:57:51;;;;;;;13.75;2.75;;;6.20;99.90;;;;;;5091868;28;20040;-86
2022/11/22 08:00:17;;;;;;;10.10;2.22;;;6.20;99.90;;;;;;5091784;28;20081;-86
2022/11/22 08:02:43;;;;;;;10.70;2.83;;;6.20;99.90;;;;;;5091870;28;20404;-86
2022/11/22 08:05:09;;;;;;;10.63;2.38;;;6.20;99.90;;;;;;5091815;28;20554;-86
2022/11/22 08:07:34;;;;;;;11.20;2.70;;;6.20;99.90;;;;;;5091613;28;20036;-87
2022/11/22 08:10:00;;;;;;;15.50;3.58;;;6.20;99.90;;;;;;5091748;28;20036;-87
2022/11/22 08:12:26;;;;;;;14.48;2.83;;;6.20;99.90;;;;;;5091496;28;20029;-86
2022/11/22 08:14:51;;;;;;;15.55;2.75;;;6.20;99.90;;;;;;5091532;28;20493;-86
2022/11/22 08:17:17;;;;;;;13.25;3.03;;;6.20;99.90;;;;;;5091835;28;20036;-86
2022/11/22 08:19:42;;;;;;;11.52;2.45;;;6.20;99.90;;;;;;5074763;28;20047;-85
2022/11/22 08:22:08;;;;;;;15.50;2.78;;;6.20;99.90;;;;;;5091503;28;20055;-85
2022/11/22 08:24:33;;;;;;;14.23;3.20;;;6.20;99.90;;;;;;5091571;28;20036;-85
2022/11/22 08:26:59;;;;;;;13.02;2.63;;;6.20;99.90;;;;;;5073523;28;20401;-86
2022/11/22 08:29:24;;;;;;;14.15;2.35;;;6.30;99.90;;;;;;5091600;28;20530;-86
2022/11/22 08:31:50;;;;;;;15.85;2.60;;;6.20;99.90;;;;;;5091459;28;20036;-86
2022/11/22 08:34:16;;;;;;;11.48;2.15;;;6.30;99.90;;;;;;5074118;28;20501;-86
2022/11/22 08:36:41;;;;;;;10.32;1.90;;;6.30;99.90;;;;;;5091315;28;20098;-86
2022/11/22 08:39:07;;;;;;;12.65;2.83;;;6.30;99.90;;;;;;5091481;28;20474;-86
2022/11/22 08:41:32;;;;;;;10.90;2.63;;;6.30;99.90;;;;;;5090979;28;20483;-86
2022/11/22 08:43:58;;;;;;;15.77;2.67;;;6.30;99.90;;;;;;5073991;28;20040;-86
2022/11/22 08:46:23;;;;;;;12.73;2.60;;;6.30;99.90;;;;;;5090822;28;20169;-86
2022/11/22 08:48:52;;;;;;;15.18;2.78;;;6.40;99.90;;;;;;5074374;28;20066;-86
2022/11/22 08:51:18;;;;;;;13.32;2.42;;;6.40;99.90;;;;;;5074288;28;20363;-85
2022/11/22 08:53:43;;;;;;;11.73;2.30;;;6.40;99.90;;;;;;5073969;28;20039;-86
2022/11/22 08:56:14;;;;;;;11.82;2.25;;;6.50;99.90;;;;;;5073862;28;20507;-86
2022/11/22 08:58:40;;;;;;;8.32;1.98;;;6.50;99.90;;;;;;5091067;28;20036;-88
2022/11/22 09:01:12;;;;;;;15.63;2.30;;;6.50;99.90;;;;;;5090861;28;20436;-88
2022/11/22 09:03:39;;;;;;;9.60;3.22;;;6.60;99.90;;;;;;5073769;28;20062;-89
2022/11/22 09:06:10;;;;;;;8.80;2.13;;;6.60;99.90;;;;;;5090731;28;20050;-89
2022/11/22 09:08:36;;;;;;;13.48;2.58;;;6.60;99.90;;;;;;5073626;28;20079;-89
2022/11/22 09:11:04;;;;;;;12.57;2.20;;;6.70;99.90;;;;;;5073362;28;20067;-88
2022/11/22 09:13:30;;;;;;;14.32;2.80;;;6.70;99.90;;;;;;5073510;28;20032;-88
2022/11/22 09:16:04;;;;;;;11.23;2.58;;;6.80;99.90;;;;;;5090412;28;20035;-89
2022/11/22 09:18:30;;;;;;;17.73;2.47;;;6.80;99.90;;;;;;5090083;28;20119;-89
2022/11/22 09:21:02;;;;;;;12.20;2.45;;;6.90;99.90;;;;;;5073277;28;20513;-89
2022/11/22 09:23:28;;;;;;;9.43;2.22;;;6.90;99.90;;;;;;5090367;28;20401;-89
2022/11/22 09:25:59;;;;;;;14.88;2.65;;;7.00;99.90;;;;;;5073031;28;20585;-88
2022/11/22 09:28:26;;;;;;;9.27;2.28;;;7.10;99.90;;;;;;5072176;28;20063;-88
2022/11/22 09:30:59;;;;;;;12.02;2.22;;;7.10;99.90;;;;;;5072172;28;20132;-88
2022/11/22 09:33:24;;;;;;;8.73;2.15;;;7.20;99.90;;;;;;5097437;28;20059;-88
2022/11/22 09:35:50;;;;;;;8.80;2.03;;;7.20;99.90;;;;;;5090003;28;20123;-89
2022/11/22 09:38:15;;;;;;;8.30;1.80;;;7.20;99.90;;;;;;5090080;28;20607;-88
2022/11/22 09:40:45;;;;;;;10.13;2.33;;;7.20;99.90;;;;;;5089974;28;20500;-90
2022/11/22 09:43:35;;;;;;;12.93;2.55;;;7.20;99.90;;;;;;5089863;28;20089;-89
2022/11/22 09:46:30;;;;;;;8.80;1.80;;;7.30;99.90;;;;;;5124196;27;20071;-89
2022/11/22 09:49:07;;;;;;;8.35;2.22;;;7.30;99.90;;;;;;5107382;28;20162;-89
2022/11/22 09:51:38;;;;;;;9.35;1.75;;;7.30;99.90;;;;;;5089971;28;20036;-88
2022/11/22 09:54:11;;;;;;;9.73;1.52;;;7.30;99.90;;;;;;5089829;28;20071;-89
2022/11/22 09:56:37;;;;;;;;;;;7.30;99.90;;;;;;5107516;28;20512;-88
2022/11/22 09:59:02;;;;;;;11.60;2.38;;;7.30;99.90;;;;;;5089983;28;19916;-89
2022/11/22 10:01:41;;;;;;;9.90;2.08;;;7.30;99.90;;;;;;5090107;28;20105;-88
2022/11/22 10:04:15;;;;;;;5.82;1.58;;;7.30;99.90;;;;;;5089744;28;20048;-88
2022/11/22 10:06:52;;;;;;;6.97;1.48;;;7.30;99.90;;;;;;5089691;28;20036;-88
2022/11/22 10:09:24;;;;;;;6.72;2.10;;;7.40;99.90;;;;;;5090247;28;20749;-88
2022/11/22 10:11:56;;;;;;;11.38;2.10;;;7.40;99.90;;;;;;5089746;28;20036;-89
2022/11/22 10:14:39;;;;;;;6.93;1.55;;;7.40;99.90;;;;;;5072893;28;20036;-89
2022/11/22 10:17:24;;;;;;;7.18;1.73;;;7.50;99.90;;;;;;5073169;28;20674;-89
2022/11/22 10:20:00;;;;;;;12.30;1.92;;;7.50;99.90;;;;;;5090039;28;20047;-89
2022/11/22 10:22:28;;;;;;;12.35;2.20;;;7.60;99.90;;;;;;5072797;28;20052;-88
2022/11/22 10:24:55;;;;;;;10.48;2.75;;;7.60;99.90;;;;;;5072898;28;20040;-89
2022/11/22 10:27:20;;;;;;;9.02;1.98;;;7.70;99.90;;;;;;5072861;28;20048;-89
2022/11/22 10:29:56;;;;;;;10.93;2.08;;;7.70;99.90;;;;;;5089631;28;20036;-88
2022/11/22 10:32:51;;;;;;;12.38;2.22;;;7.80;99.90;;;;;;5072523;28;20028;-88
2022/11/22 10:35:45;;;;;;;6.10;1.30;;;7.90;99.90;;;;;;5089460;28;20125;-88
2022/11/22 10:38:24;;;;;;;7.70;2.00;;;8.00;99.90;;;;;;5073049;28;20173;-88
2022/11/22 10:41:02;;;;;;;8.10;1.77;;;8.10;99.90;;;;;;5089460;28;20058;-86
2022/11/22 10:43:46;;;;;;;8.98;2.25;;;8.10;99.90;;;;;;5089647;28;20428;-86
2022/11/22 10:46:25;;;;;;;10.90;1.85;;;8.20;99.90;;;;;;5072664;28;20043;-86
2022/11/22 10:49:11;;;;;;;10.10;1.98;;;8.20;99.90;;;;;;5072122;28;20040;-86
2022/11/22 10:51:53;;;;;;;7.57;1.30;;;8.30;99.90;;;;;;5092937;28;20067;-86
2022/11/22 10:54:24;;;;;;;6.05;1.52;;;8.30;99.90;;;;;;5110240;28;20077;-86
2022/11/22 10:57:18;;;;;;;8.00;1.52;;;8.40;99.90;;;;;;5110043;28;20051;-86
2022/11/22 11:00:04;;;;;;;11.00;1.95;;;8.50;99.90;;;;;;5105906;28;20059;-85
2022/11/22 11:03:02;;;;;;;10.55;1.77;;;8.60;99.90;;;;;;5092197;28;20119;-87
2022/11/22 11:05:44;;;;;;;10.52;2.08;;;8.70;99.90;;;;;;5092336;28;20039;-87
2022/11/22 11:08:20;;;;;;;8.25;1.70;;;8.80;99.90;;;;;;5090339;28;20051;-87
2022/11/22 11:10:45;;;;;;;10.80;1.80;;;8.90;99.90;;;;;;5092819;28;20093;-87
2022/11/22 11:13:28;;;;;;;6.10;1.40;;;8.80;99.90;;;;;;5075273;28;20122;-87
2022/11/22 11:15:56;;;;;;;7.35;1.65;;;8.90;99.90;;;;;;5116105;27;20072;-87
2022/11/22 11:18:53;;;;;;;9.43;2.10;;;8.90;99.90;;;;;;5101317;28;20597;-87
2022/11/22 11:21:19;;;;;;;7.82;1.52;;;8.80;99.90;;;;;;5075644;28;20043;-87
2022/11/22 11:23:44;;;;;;;8.23;1.55;;;8.80;99.90;;;;;;5075130;28;20043;-87
2022/11/22 11:26:30;;;;;;;11.18;2.03;;;8.80;99.90;;;;;;5092040;28;20036;-87
2022/11/22 11:29:14;;;;;;;7.80;1.48;;;8.80;99.90;;;;;;5073930;28;20086;-87
2022/11/22 11:31:45;;;;;;;4.63;1.23;;;8.80;99.90;;;;;;5091489;28;20036;-87
2022/11/22 11:34:20;;;;;;;7.22;1.40;;;8.80;99.90;;;;;;5072773;28;20028;-87
2022/11/22 11:36:46;;;;;;;6.90;1.58;;;8.80;99.90;;;;;;5075063;28;20093;-87
2022/11/22 11:39:22;;;;;;;7.45;1.73;;;8.70;99.90;;;;;;5075645;28;20035;-86
2022/11/22 11:41:49;;;;;;;7.47;1.55;;;8.70;99.90;;;;;;5092658;28;20076;-87
2022/11/22 11:44:35;;;;;;;6.57;1.65;;;8.70;99.90;;;;;;5091989;28;20078;-86
2022/11/22 11:47:02;;;;;;;7.63;1.63;;;8.80;99.90;;;;;;5092062;28;20132;-86
2022/11/22 11:49:33;;;;;;;7.57;1.70;;;8.70;99.90;;;;;;5092507;28;20040;-87
2022/11/22 11:52:02;;;;;;;11.85;2.47;;;8.80;99.90;;;;;;5075185;28;20421;-85
2022/11/22 11:54:47;;;;;;;6.15;1.40;;;8.80;99.90;;;;;;5092143;28;20502;-86
2022/11/22 11:57:26;;;;;;;7.55;1.30;;;8.70;99.90;;;;;;5074866;28;20042;-86
2022/11/22 12:00:00;;;;;;;8.60;1.77;;;8.70;99.90;;;;;;5081440;28;20040;-86
2022/11/22 12:02:25;;;;;;;6.10;1.40;;;8.70;99.90;;;;;;5079743;28;20041;-86
2022/11/22 12:04:54;;;;;;;10.68;2.05;;;8.70;99.90;;;;;;5099084;28;20074;-86
2022/11/22 12:07:26;;;;;;;9.25;1.70;;;8.70;99.90;;;;;;5093866;28;20044;-86
2022/11/22 12:09:55;;;;;;;8.63;1.48;;;8.60;99.90;;;;;;5104154;28;20111;-86
2022/11/22 12:12:43;;;;;;;12.10;1.85;;;8.70;99.90;;;;;;5105762;28;20394;-87
2022/11/22 12:15:46;;;;;;;7.57;1.63;;;8.60;99.90;;;;;;5105547;28;20044;-86
2022/11/22 12:18:31;;;;;;;12.55;1.70;;;8.70;99.90;;;;;;5071149;28;20131;-87
2022/11/22 12:21:21;;;;;;;6.93;1.40;;;8.70;99.90;;;;;;5074855;28;20496;-87
2022/11/22 12:24:02;;;;;;;10.52;1.80;;;8.70;99.90;;;;;;5091150;28;20032;-86
2022/11/22 12:26:29;;;;;;;6.78;1.73;;;8.70;99.90;;;;;;5091207;28;20391;-87
2022/11/22 12:28:56;;;;;;;10.98;1.58;;;8.70;99.90;;;;;;5091568;28;20044;-87
2022/11/22 12:31:35;;;;;;;10.40;1.95;;;8.80;99.90;;;;;;5083136;28;20032;-87
2022/11/22 12:34:25;;;;;;;11.02;1.58;;;8.80;99.90;;;;;;5073005;28;20058;-86
2022/11/22 12:36:51;;;;;;;8.48;1.60;;;8.80;99.90;;;;;;5074157;28;20044;-86
2022/11/22 12:39:23;;;;;;;8.77;1.83;;;8.70;99.90;;;;;;5091507;28;20050;-86
2022/11/22 12:41:52;;;;;;;;;;;8.70;99.90;;;;;;5091307;28;20055;-86
2022/11/22 12:44:19;;;;;;;13.07;2.17;;;8.70;99.90;;;;;;5091053;28;19916;-86
2022/11/22 12:47:00;;;;;;;6.25;1.50;;;8.70;99.90;;;;;;5074263;28;20036;-86
2022/11/22 12:49:40;;;;;;;8.25;1.50;;;8.70;99.90;;;;;;5073884;28;20032;-86
2022/11/22 12:52:28;;;;;;;7.60;1.77;;;8.70;99.90;;;;;;5073696;28;20518;-86
2022/11/22 12:55:05;;;;;;;6.53;1.42;;;8.70;99.90;;;;;;5090997;28;20074;-86
2022/11/22 12:57:43;;;;;;;5.35;1.27;;;8.70;99.90;;;;;;5090980;28;20048;-86
2022/11/22 13:00:15;;;;;;;5.95;1.20;;;8.60;99.90;;;;;;5073873;28;20052;-86
2022/11/22 13:02:58;;;;;;;5.95;1.70;;;8.60;99.90;;;;;;5090410;28;20036;-86
2022/11/22 13:05:28;;;;;;;3.70;1.20;;;8.60;99.90;;;;;;5090733;28;20051;-86
2022/11/22 13:08:15;;;;;;;7.15;1.52;;;8.60;99.90;;;;;;5073706;28;20040;-86
2022/11/22 13:10:46;;;;;;;5.07;1.45;;;8.60;99.90;;;;;;5090931;28;20032;-86
2022/11/22 13:13:25;;;;;;;5.07;1.60;;;8.60;99.90;;;;;;5090155;28;20445;-86
2022/11/22 13:15:53;;;;;;;8.45;1.40;;;8.60;99.90;;;;;;5090919;28;20028;-86
2022/11/22 13:18:22;;;;;;;5.28;1.27;;;8.60;99.90;;;;;;5073997;28;20560;-86